createdAt,value
2018-05-10T00:01:22.281Z,6.93
2018-05-10T00:03:50.537Z,7.10
2018-05-10T00:06:18.052Z,6.80
2018-05-10T00:08:45.538Z,6.70
2018-05-10T00:11:13.021Z,9.13
2018-05-10T00:13:40.540Z,8.37
2018-05-10T00:16:08.785Z,7.20
2018-05-10T00:18:36.266Z,7.53
2018-05-10T00:21:03.787Z,6.87
2018-05-10T00:23:31.283Z,6.90
2018-05-10T00:25:58.801Z,6.87
2018-05-10T00:28:27.085Z,7.20
2018-05-10T00:30:54.565Z,6.60
2018-05-10T00:33:22.834Z,7.50
2018-05-10T00:35:50.305Z,6.97
2018-05-10T00:38:17.814Z,6.30
2018-05-10T00:40:45.290Z,6.40
2018-05-10T00:43:12.775Z,6.90
2018-05-10T00:45:40.307Z,6.53
2018-05-10T00:48:08.578Z,6.27
2018-05-10T00:50:36.115Z,6.20
2018-05-10T00:53:03.618Z,6.60
2018-05-10T00:55:31.111Z,6.13
2018-05-10T00:57:58.631Z,6.30
2018-05-10T01:00:26.124Z,6.03
2018-05-10T01:02:53.618Z,6.37
2018-05-10T01:05:21.919Z,6.50
2018-05-10T01:07:50.170Z,6.60
2018-05-10T01:10:17.742Z,6.07
2018-05-10T01:12:45.258Z,7.87
2018-05-10T01:15:12.782Z,7.20
2018-05-10T01:17:40.269Z,6.43
2018-05-10T01:20:07.777Z,6.97
2018-05-10T01:22:35.253Z,7.50
2018-05-10T01:25:02.780Z,7.33
2018-05-10T01:27:30.261Z,7.67
2018-05-10T01:29:58.541Z,6.63
2018-05-10T01:32:26.794Z,6.60
2018-05-10T01:35:06.240Z,7.13
2018-05-10T01:37:33.741Z,7.63
2018-05-10T01:40:01.265Z,8.20
2018-05-10T01:42:28.750Z,8.30
2018-05-10T01:44:56.273Z,8.10
2018-05-10T01:47:24.522Z,8.50
2018-05-10T01:49:52.030Z,7.50
2018-05-10T01:52:20.273Z,8.40
2018-05-10T01:54:47.783Z,8.30
2018-05-10T01:57:16.030Z,7.90
2018-05-10T01:59:43.541Z,7.27
2018-05-10T02:02:11.788Z,7.67
2018-05-10T02:04:39.297Z,8.13
2018-05-10T02:07:06.770Z,8.10
2018-05-10T02:09:34.279Z,7.67
2018-05-10T02:12:01.774Z,8.17
2018-05-10T02:14:29.255Z,7.50
2018-05-10T02:16:56.772Z,7.67
2018-05-10T02:19:24.258Z,7.80
2018-05-10T02:21:51.790Z,7.50
2018-05-10T02:24:19.275Z,7.80
2018-05-10T02:26:46.798Z,7.60
2018-05-10T02:29:14.286Z,7.77
2018-05-10T02:31:41.816Z,7.80
2018-05-10T02:34:09.311Z,8.20
2018-05-10T02:36:36.825Z,7.77
2018-05-10T02:39:05.078Z,7.13
2018-05-10T02:41:32.591Z,7.00
2018-05-10T02:44:00.080Z,7.50
2018-05-10T02:46:27.594Z,7.17
2018-05-10T02:48:55.078Z,8.27
2018-05-10T02:51:22.598Z,7.13
2018-05-10T02:53:50.086Z,8.47
2018-05-10T02:56:17.610Z,9.30
2018-05-10T02:58:45.098Z,8.93
2018-05-10T03:01:12.630Z,8.97
2018-05-10T03:03:40.105Z,9.00
2018-05-10T03:06:08.391Z,8.90
2018-05-10T03:08:35.870Z,7.60
2018-05-10T03:11:04.161Z,9.33
2018-05-10T03:13:32.412Z,8.67
2018-05-10T03:15:59.949Z,7.93
2018-05-10T03:18:27.436Z,6.43
2018-05-10T03:20:55.723Z,7.93
2018-05-10T03:23:23.210Z,5.83
2018-05-10T03:25:50.695Z,6.50
2018-05-10T03:28:18.222Z,6.30
2018-05-10T03:30:45.724Z,7.30
2018-05-10T03:33:13.257Z,7.10
2018-05-10T03:35:40.754Z,8.13
2018-05-10T03:38:08.265Z,8.20
2018-05-10T03:40:36.568Z,8.37
2018-05-10T03:43:04.047Z,9.00
2018-05-10T03:45:31.545Z,9.60
2018-05-10T03:47:59.067Z,9.70
2018-05-10T03:50:27.316Z,8.77
2018-05-10T03:52:54.833Z,9.07
2018-05-10T03:55:23.094Z,10.37
2018-05-10T03:57:50.650Z,9.30
2018-05-10T04:00:18.126Z,9.00
2018-05-10T04:06:02.731Z,10.10
2018-05-10T04:08:42.159Z,10.90
2018-05-10T04:11:24.128Z,10.00
2018-05-10T04:13:52.414Z,11.43
2018-05-10T04:16:19.907Z,11.33
2018-05-10T04:18:47.430Z,10.47
2018-05-10T04:21:32.318Z,12.00
2018-05-10T04:23:59.840Z,10.90
2018-05-10T04:26:27.333Z,10.83
2018-05-10T04:28:54.847Z,11.80
2018-05-10T04:31:23.097Z,10.47
2018-05-10T04:33:50.626Z,11.43
2018-05-10T04:36:18.118Z,11.30
2018-05-10T04:38:45.655Z,11.30
2018-05-10T04:41:13.901Z,11.93
2018-05-10T04:43:41.413Z,11.50
2018-05-10T04:46:09.678Z,11.13
2018-05-10T04:48:37.197Z,10.90
2018-05-10T04:51:04.705Z,11.90
2018-05-10T04:53:32.190Z,11.43
2018-05-10T04:55:59.705Z,11.50
2018-05-10T04:58:27.200Z,10.80
2018-05-10T05:00:54.725Z,12.33
2018-05-10T05:03:23.047Z,12.57
2018-05-10T05:05:51.283Z,12.50
2018-05-10T05:08:19.541Z,12.53
2018-05-10T05:10:47.055Z,12.03
2018-05-10T05:13:15.314Z,13.77
2018-05-10T05:15:42.830Z,11.80
2018-05-10T05:18:10.328Z,10.90
2018-05-10T05:20:37.842Z,12.27
2018-05-10T05:23:05.350Z,12.23
2018-05-10T05:25:32.877Z,13.27
2018-05-10T05:28:00.358Z,14.10
2018-05-10T05:30:28.642Z,11.63
2018-05-10T05:32:56.142Z,11.90
2018-05-10T05:35:23.667Z,12.23
2018-05-10T05:37:51.149Z,12.30
2018-05-10T05:40:18.665Z,11.23
2018-05-10T05:42:46.154Z,12.67
2018-05-10T05:45:13.669Z,12.23
2018-05-10T05:47:41.159Z,11.97
2018-05-10T05:50:08.682Z,14.87
2018-05-10T05:52:36.174Z,14.47
2018-05-10T05:55:03.763Z,15.13
2018-05-10T05:57:31.195Z,15.53
2018-05-10T05:59:58.719Z,16.20
2018-05-10T06:02:26.216Z,16.63
2018-05-10T06:04:53.708Z,17.27
2018-05-10T06:07:21.227Z,16.93
2018-05-10T06:09:48.719Z,16.47
2018-05-10T06:12:16.999Z,17.57
2018-05-10T06:14:45.286Z,17.27
2018-05-10T06:17:12.861Z,18.17
2018-05-10T06:19:41.081Z,16.33
2018-05-10T06:22:10.614Z,18.80
2018-05-10T06:24:38.118Z,17.20
2018-05-10T06:27:05.658Z,19.20
2018-05-10T06:29:33.153Z,18.07
2018-05-10T06:32:01.437Z,16.90
2018-05-10T06:34:29.686Z,17.13
2018-05-10T06:36:57.209Z,18.27
2018-05-10T06:39:24.698Z,18.37
2018-05-10T06:41:52.228Z,17.33
2018-05-10T06:44:20.478Z,15.47
2018-05-10T06:46:48.046Z,16.87
2018-05-10T06:49:15.498Z,18.00
2018-05-10T06:51:43.106Z,15.10
2018-05-10T06:54:10.595Z,15.77
2018-05-10T06:56:38.117Z,16.63
2018-05-10T06:59:05.598Z,18.50
2018-05-10T07:01:33.117Z,16.80
2018-05-10T07:04:01.378Z,18.17
2018-05-10T07:06:28.909Z,19.00
2018-05-10T07:08:56.431Z,19.33
2018-05-10T07:11:24.042Z,22.60
2018-05-10T07:13:51.526Z,26.47
2018-05-10T07:16:19.793Z,26.20
2018-05-10T07:18:47.318Z,29.33
2018-05-10T07:21:14.803Z,29.20
2018-05-10T07:23:42.336Z,31.10
2018-05-10T07:26:10.307Z,33.67
2018-05-10T07:28:37.830Z,33.77
2018-05-10T07:31:05.334Z,145.77
2018-05-10T07:33:32.853Z,32.63
2018-05-10T07:36:00.343Z,37.83
2018-05-10T07:38:28.641Z,38.90
2018-05-10T07:40:56.916Z,35.37
2018-05-10T07:43:24.462Z,37.27
2018-05-10T07:45:51.941Z,41.53
2018-05-10T07:48:19.458Z,40.20
2018-05-10T07:50:46.950Z,41.47
2018-05-10T07:53:14.525Z,44.20
2018-05-10T07:55:42.744Z,41.90
2018-05-10T07:58:10.265Z,41.00
2018-05-10T08:00:37.766Z,40.23
2018-05-10T08:03:05.286Z,40.50
2018-05-10T08:05:33.546Z,45.17
2018-05-10T08:08:01.062Z,44.50
2018-05-10T08:10:28.546Z,44.53
2018-05-10T08:12:56.054Z,43.27
2018-05-10T08:15:23.555Z,44.87
2018-05-10T08:17:51.837Z,46.60
2018-05-10T08:20:20.086Z,42.63
2018-05-10T08:22:47.578Z,44.03
2018-05-10T08:25:15.095Z,42.97
2018-05-10T08:27:46.517Z,41.87
2018-05-10T08:30:14.838Z,40.13
2018-05-10T08:32:42.346Z,41.63
2018-05-10T08:35:09.873Z,42.37
2018-05-10T08:37:37.366Z,37.50
2018-05-10T08:40:04.884Z,40.87
2018-05-10T08:42:32.374Z,40.43
2018-05-10T08:45:00.675Z,38.73
2018-05-10T08:47:28.179Z,39.63
2018-05-10T08:49:55.697Z,39.10
2018-05-10T08:52:23.945Z,41.57
2018-05-10T08:54:51.466Z,38.63
2018-05-10T08:57:19.713Z,38.40
2018-05-10T08:59:47.247Z,40.60
2018-05-10T09:02:14.740Z,38.23
2018-05-10T09:04:42.262Z,38.77
2018-05-10T09:07:10.542Z,38.93
2018-05-10T09:09:38.822Z,41.20
2018-05-10T09:12:06.316Z,38.77
2018-05-10T09:14:33.830Z,40.70
2018-05-10T09:17:01.313Z,39.77
2018-05-10T09:19:28.833Z,39.43
2018-05-10T09:21:56.329Z,38.70
2018-05-10T09:24:23.851Z,37.70
2018-05-10T09:26:52.110Z,38.37
2018-05-10T09:29:19.627Z,41.33
2018-05-10T09:31:47.910Z,38.60
2018-05-10T09:34:16.216Z,38.40
2018-05-10T09:36:43.710Z,39.63
2018-05-10T09:39:11.295Z,37.47
2018-05-10T09:41:38.760Z,37.73
2018-05-10T09:44:06.271Z,38.77
2018-05-10T09:46:34.553Z,38.10
2018-05-10T09:49:02.039Z,37.80
2018-05-10T09:51:30.331Z,36.87
2018-05-10T09:53:58.578Z,36.33
2018-05-10T09:56:26.098Z,35.90
2018-05-10T09:58:53.582Z,36.03
2018-05-10T10:01:21.103Z,33.83
2018-05-10T10:03:48.595Z,37.20
2018-05-10T10:06:16.976Z,38.20
2018-05-10T10:08:44.373Z,36.17
2018-05-10T10:11:11.895Z,35.20
2018-05-10T10:13:39.382Z,35.80
2018-05-10T10:16:06.906Z,33.33
2018-05-10T10:18:34.409Z,32.53
2018-05-10T10:21:01.937Z,33.63
2018-05-10T10:23:29.438Z,33.57
2018-05-10T10:25:56.967Z,33.37
2018-05-10T10:28:24.487Z,31.77
2018-05-10T10:30:52.111Z,31.87
2018-05-10T10:33:19.604Z,31.20
2018-05-10T10:35:47.106Z,29.47
2018-05-10T10:38:14.633Z,30.47
2018-05-10T10:40:42.130Z,31.70
2018-05-10T10:43:09.664Z,29.17
2018-05-10T10:45:37.153Z,28.43
2018-05-10T10:48:04.685Z,27.63
2018-05-10T10:50:32.954Z,28.40
2018-05-10T10:53:00.513Z,28.60
2018-05-10T10:55:27.974Z,28.53
2018-05-10T10:57:55.506Z,28.83
2018-05-10T11:00:22.994Z,28.77
2018-05-10T11:02:50.519Z,26.90
2018-05-10T11:05:18.796Z,26.20
2018-05-10T11:07:47.093Z,25.37
2018-05-10T11:10:15.362Z,25.37
2018-05-10T11:12:42.958Z,25.37
2018-05-10T11:15:11.221Z,26.27
2018-05-10T11:17:38.775Z,26.10
2018-05-10T11:20:06.256Z,26.10
2018-05-10T11:22:33.782Z,25.70
2018-05-10T11:25:01.275Z,27.13
2018-05-10T11:27:28.808Z,24.70
2018-05-10T11:29:56.306Z,24.97
2018-05-10T11:32:23.972Z,23.00
2018-05-10T11:34:51.465Z,23.57
2018-05-10T11:37:18.962Z,22.43
2018-05-10T11:39:46.479Z,22.90
2018-05-10T11:42:13.966Z,22.40
2018-05-10T11:44:41.511Z,21.07
2018-05-10T11:47:09.195Z,22.90
2018-05-10T11:49:36.727Z,23.50
2018-05-10T11:52:04.214Z,22.80
2018-05-10T11:54:32.503Z,20.57
2018-05-10T11:57:00.756Z,18.23
2018-05-10T11:59:28.273Z,20.20
2018-05-10T12:01:55.772Z,18.00
2018-05-10T12:04:23.309Z,18.43
2018-05-10T12:06:50.798Z,17.87
2018-05-10T12:09:18.315Z,17.50
2018-05-10T12:11:45.811Z,19.50
2018-05-10T12:14:14.220Z,17.03
2018-05-10T12:16:41.718Z,20.63
2018-05-10T12:19:09.310Z,18.30
2018-05-10T12:21:37.047Z,19.00
2018-05-10T12:24:04.569Z,17.33
2018-05-10T12:26:32.054Z,17.60
2018-05-10T12:29:00.350Z,17.20
2018-05-10T12:31:28.602Z,18.50
2018-05-10T12:33:56.134Z,18.53
2018-05-10T12:36:23.626Z,18.10
2018-05-10T12:38:51.149Z,17.03
2018-05-10T12:41:19.401Z,19.23
2018-05-10T12:43:46.927Z,17.67
2018-05-10T12:46:14.411Z,16.37
2018-05-10T12:48:41.941Z,15.37
2018-05-10T12:51:09.456Z,16.77
2018-05-10T12:53:36.953Z,15.93
2018-05-10T12:56:04.517Z,15.77
2018-05-10T12:58:31.994Z,16.40
2018-05-10T13:00:59.518Z,16.60
2018-05-10T13:03:27.008Z,17.00
2018-05-10T13:05:54.541Z,18.83
2018-05-10T13:08:22.894Z,17.40
2018-05-10T13:10:51.097Z,19.07
2018-05-10T13:13:18.635Z,19.10
2018-05-10T13:15:46.129Z,21.30
2018-05-10T13:18:13.625Z,22.53
2018-05-10T13:20:41.926Z,23.30
2018-05-10T13:23:09.418Z,22.57
2018-05-10T13:25:36.937Z,23.67
2018-05-10T13:28:04.430Z,26.37
2018-05-10T13:30:32.735Z,25.97
2018-05-10T13:33:00.226Z,25.63
2018-05-10T13:35:27.769Z,26.00
2018-05-10T13:37:55.259Z,21.97
2018-05-10T13:40:22.791Z,23.87
2018-05-10T13:42:50.285Z,23.40
2018-05-10T13:45:17.805Z,23.63
2018-05-10T13:47:45.292Z,25.33
2018-05-10T13:50:12.824Z,25.03
2018-05-10T13:52:40.334Z,32.53
2018-05-10T13:55:07.870Z,29.60
2018-05-10T13:57:35.360Z,23.60
2018-05-10T14:00:02.853Z,21.70
2018-05-10T14:02:31.151Z,22.30
2018-05-10T14:04:59.409Z,21.40
2018-05-10T14:07:26.930Z,22.20
2018-05-10T14:09:54.427Z,21.53
2018-05-10T14:12:21.963Z,22.60
2018-05-10T14:14:49.445Z,23.70
2018-05-10T14:17:16.975Z,21.93
2018-05-10T14:19:44.488Z,22.57
2018-05-10T14:22:12.013Z,21.00
2018-05-10T14:24:39.517Z,17.57
2018-05-10T14:27:07.049Z,16.07
2018-05-10T14:29:34.534Z,14.73
2018-05-10T14:32:02.078Z,13.40
2018-05-10T14:34:29.575Z,12.73
2018-05-10T14:36:57.110Z,10.60
2018-05-10T14:39:24.638Z,11.40
2018-05-10T14:41:52.138Z,10.07
2018-05-10T14:44:20.389Z,9.93
2018-05-10T14:46:48.750Z,10.00
2018-05-10T14:49:16.181Z,9.37
2018-05-10T14:51:43.711Z,10.30
2018-05-10T14:54:12.042Z,9.83
2018-05-10T14:56:40.277Z,9.07
2018-05-10T14:59:08.539Z,8.70
2018-05-10T15:01:36.070Z,9.20
2018-05-10T15:04:03.567Z,9.33
2018-05-10T15:06:31.056Z,8.20
2018-05-10T15:08:58.578Z,8.73
2018-05-10T15:11:26.063Z,6.80
2018-05-10T15:13:54.349Z,7.40
2018-05-10T15:16:21.833Z,6.63
2018-05-10T15:18:49.361Z,6.23
2018-05-10T15:21:17.613Z,6.30
2018-05-10T15:23:45.215Z,6.63
2018-05-10T15:26:12.647Z,5.30
2018-05-10T15:28:40.167Z,5.90
2018-05-10T15:31:08.424Z,5.93
2018-05-10T15:33:35.963Z,6.30
2018-05-10T15:36:03.454Z,6.70
2018-05-10T15:38:30.973Z,5.60
2018-05-10T15:40:58.457Z,5.90
2018-05-10T15:43:25.990Z,5.30
2018-05-10T15:45:53.528Z,5.80
2018-05-10T15:48:21.046Z,6.40
2018-05-10T15:50:49.308Z,7.07
2018-05-10T15:53:16.850Z,6.20
2018-05-10T15:55:44.427Z,6.73
2018-05-10T15:58:11.946Z,6.17
2018-05-10T16:00:40.199Z,7.40
2018-05-10T16:03:07.719Z,7.20
2018-05-10T16:05:35.218Z,12.30
2018-05-10T16:08:02.757Z,6.17
2018-05-10T16:10:30.254Z,6.60
2018-05-10T16:12:57.739Z,6.90
2018-05-10T16:15:25.269Z,6.97
2018-05-10T16:17:52.749Z,5.80
2018-05-10T16:20:20.243Z,7.27
2018-05-10T16:22:47.773Z,7.00
2018-05-10T16:25:15.262Z,7.90
2018-05-10T16:27:42.829Z,7.50
2018-05-10T16:30:10.326Z,7.40
2018-05-10T16:32:37.872Z,8.87
2018-05-10T16:35:05.367Z,8.30
2018-05-10T16:37:32.895Z,9.50
2018-05-10T16:40:00.381Z,9.00
2018-05-10T16:42:27.910Z,8.43
2018-05-10T16:44:55.406Z,12.97
2018-05-10T16:47:23.706Z,14.90
2018-05-10T16:49:51.198Z,11.90
2018-05-10T16:52:18.734Z,13.40
2018-05-10T16:54:46.999Z,10.97
2018-05-10T16:57:14.535Z,13.07
2018-05-10T16:59:42.036Z,13.30
2018-05-10T17:02:09.569Z,12.67
2018-05-10T17:04:37.058Z,14.93
2018-05-10T17:07:04.581Z,14.37
2018-05-10T17:09:32.069Z,19.77
2018-05-10T17:11:59.606Z,16.40
2018-05-10T17:14:27.861Z,14.93
2018-05-10T17:16:55.418Z,15.43
2018-05-10T17:19:22.906Z,15.43
2018-05-10T17:21:50.456Z,14.90
2018-05-10T17:24:17.959Z,16.40
2018-05-10T17:26:45.494Z,15.30
2018-05-10T17:29:12.993Z,15.50
2018-05-10T17:31:40.484Z,15.60
2018-05-10T17:34:08.785Z,17.73
2018-05-10T17:36:37.040Z,14.93
2018-05-10T17:39:05.335Z,14.70
2018-05-10T17:41:32.833Z,16.63
2018-05-10T17:44:01.126Z,15.63
2018-05-10T17:46:29.390Z,15.43
2018-05-10T17:48:56.916Z,15.03
2018-05-10T17:51:24.397Z,15.43
2018-05-10T17:53:51.942Z,15.97
2018-05-10T17:56:19.442Z,15.70
2018-05-10T17:58:46.982Z,15.77
2018-05-10T18:01:14.554Z,15.37
2018-05-10T18:03:42.032Z,15.20
2018-05-10T18:06:09.538Z,15.90
2018-05-10T18:08:37.077Z,16.33
2018-05-10T18:11:04.562Z,17.80
2018-05-10T18:13:32.119Z,17.10
2018-05-10T18:15:59.611Z,16.47
2018-05-10T18:18:27.142Z,17.43
2018-05-10T18:20:54.662Z,15.47
2018-05-10T18:23:22.209Z,17.73
2018-05-10T18:25:50.462Z,19.20
2018-05-10T18:28:18.752Z,18.90
2018-05-10T18:30:46.250Z,18.80
2018-05-10T18:33:13.839Z,17.37
2018-05-10T18:35:42.039Z,16.80
2018-05-10T18:38:09.545Z,16.43
2018-05-10T18:40:37.849Z,17.00
2018-05-10T18:43:05.359Z,17.10
2018-05-10T18:45:32.894Z,16.00
2018-05-10T18:48:00.394Z,15.67
2018-05-10T18:50:27.934Z,15.57
2018-05-10T18:52:55.434Z,12.80
2018-05-10T18:55:22.975Z,12.70
2018-05-10T18:57:50.475Z,14.90
2018-05-10T19:00:18.073Z,12.93
2018-05-10T19:02:45.517Z,13.30
2018-05-10T19:05:13.041Z,12.90
2018-05-10T19:07:40.541Z,11.73
2018-05-10T19:10:08.085Z,12.00
2018-05-10T19:12:36.339Z,12.90
2018-05-10T19:15:03.881Z,11.70
2018-05-10T19:17:31.387Z,12.00
2018-05-10T19:19:58.917Z,10.40
2018-05-10T19:22:26.403Z,9.60
2018-05-10T19:24:53.942Z,10.40
2018-05-10T19:27:21.447Z,8.90
2018-05-10T19:29:48.977Z,9.80
2018-05-10T19:32:16.476Z,10.57
2018-05-10T19:34:44.012Z,10.13
2018-05-10T19:37:11.561Z,8.93
2018-05-10T19:39:39.031Z,10.40
2018-05-10T19:42:06.578Z,9.30
2018-05-10T19:44:34.071Z,9.47
2018-05-10T19:47:02.367Z,10.43
2018-05-10T19:49:30.629Z,9.77
2018-05-10T19:51:58.171Z,10.07
2018-05-10T19:54:25.667Z,9.90
2018-05-10T19:56:53.196Z,10.53
2018-05-10T19:59:20.700Z,10.53
2018-05-10T20:01:48.222Z,11.63
2018-05-10T20:04:15.714Z,10.93
2018-05-10T20:06:43.241Z,11.40
2018-05-10T20:09:11.506Z,12.37
2018-05-10T20:11:39.070Z,11.80
2018-05-10T20:14:06.570Z,10.97
2018-05-10T20:16:34.114Z,11.90
2018-05-10T20:19:01.616Z,9.60
2018-05-10T20:21:29.910Z,11.03
2018-05-10T20:23:58.229Z,10.47
2018-05-10T20:26:25.712Z,9.10
2018-05-10T20:28:53.209Z,11.20
2018-05-10T20:31:20.731Z,10.33
2018-05-10T20:33:48.214Z,10.90
2018-05-10T20:36:15.744Z,10.13
2018-05-10T20:38:44.007Z,10.77
2018-05-10T20:41:11.494Z,11.40
2018-05-10T20:43:39.030Z,10.23
2018-05-10T20:46:06.517Z,11.00
2018-05-10T20:48:34.060Z,14.77
2018-05-10T20:51:01.550Z,22.90
2018-05-10T20:53:29.078Z,17.13
2018-05-10T20:55:56.583Z,17.10
2018-05-10T20:58:24.105Z,13.80
2018-05-10T21:00:52.362Z,11.03
2018-05-10T21:03:19.881Z,10.50
2018-05-10T21:05:47.386Z,10.50
2018-05-10T21:08:14.911Z,9.67
2018-05-10T21:10:42.406Z,9.20
2018-05-10T21:13:12.626Z,9.70
2018-05-10T21:15:40.121Z,10.40
2018-05-10T21:18:07.653Z,10.40
2018-05-10T21:20:35.928Z,9.40
2018-05-10T21:23:04.220Z,10.30
2018-05-10T21:25:32.478Z,10.60
2018-05-10T21:27:59.994Z,9.73
2018-05-10T21:30:28.253Z,9.77
2018-05-10T21:32:55.773Z,10.20
2018-05-10T21:35:23.258Z,9.20
2018-05-10T21:37:50.783Z,9.10
2018-05-10T21:40:19.038Z,8.47
2018-05-10T21:42:46.597Z,8.80
2018-05-10T21:45:14.069Z,9.73
2018-05-10T21:47:41.599Z,10.33
2018-05-10T21:50:09.101Z,10.43
2018-05-10T21:52:36.631Z,10.27
2018-05-10T21:55:04.996Z,11.17
2018-05-10T21:57:33.169Z,9.77
2018-05-10T22:00:00.690Z,10.50
2018-05-10T22:02:28.182Z,9.83
2018-05-10T22:04:55.701Z,9.90
2018-05-10T22:07:23.188Z,11.30
2018-05-10T22:09:50.714Z,10.57
2018-05-10T22:12:18.218Z,10.70
2018-05-10T22:14:46.510Z,11.93
2018-05-10T22:17:14.762Z,9.63
2018-05-10T22:19:42.275Z,8.80
2018-05-10T22:22:10.550Z,10.80
2018-05-10T22:24:38.103Z,10.57
2018-05-10T22:27:05.594Z,10.30
2018-05-10T22:29:33.924Z,10.30
2018-05-10T22:32:01.444Z,9.93
2018-05-10T22:34:28.966Z,10.07
2018-05-10T22:36:56.449Z,10.37
2018-05-10T22:39:23.973Z,10.80
2018-05-10T22:41:52.226Z,9.80
2018-05-10T22:44:19.770Z,9.93
2018-05-10T22:46:47.253Z,9.67
2018-05-10T22:49:14.768Z,11.50
2018-05-10T22:51:42.263Z,11.30
2018-05-10T22:54:09.782Z,10.80
2018-05-10T22:56:37.290Z,11.23
2018-05-10T22:59:05.577Z,11.30
2018-05-10T23:01:33.859Z,10.27
2018-05-10T23:04:01.379Z,9.73
2018-05-10T23:06:28.865Z,11.43
2018-05-10T23:08:56.358Z,10.37
2018-05-10T23:11:23.884Z,11.60
2018-05-10T23:13:51.375Z,11.90
2018-05-10T23:16:18.900Z,11.23
2018-05-10T23:18:46.393Z,11.37
2018-05-10T23:21:13.933Z,10.50
2018-05-10T23:23:42.197Z,12.33
2018-05-10T23:26:09.777Z,11.93
2018-05-10T23:28:37.238Z,11.50
2018-05-10T23:31:04.769Z,11.53
2018-05-10T23:33:33.029Z,11.93
2018-05-10T23:36:00.569Z,11.67
2018-05-10T23:38:28.073Z,10.77
2018-05-10T23:40:55.601Z,11.03
2018-05-10T23:43:23.093Z,11.80
2018-05-10T23:45:51.391Z,11.83
2018-05-10T23:48:19.636Z,11.70
2018-05-10T23:50:47.167Z,11.80
2018-05-10T23:53:14.661Z,11.30
2018-05-10T23:55:42.198Z,11.40
2018-05-10T23:58:09.698Z,13.20
